Aviation Digital Data Service (ADDS)

Output produced by METARs form (1200 UTC 26 March 2019)
found at http://www.aviationweather.gov/metar/data/
 
ZMUB 261200Z 34008MPS 9999 SCT100 M04/M11 Q1018 BECMG 35007MPS RMK QFE656.3 54 NT
TAF ZMUB 261040Z 2612/2718 35005MPS 9999 SCT100 TNM17/2623Z TXM01/2707Z 
     BECMG 2703/2705 34007MPS 
     BECMG 2710/2712 VRB02MPS